Springfield, Texas
Current Conditions -  °F | °C
As of 6:15 AM on Friday 28 Nov 2014 (Local Time) from KPSN Reporting Station
Clear Clear  
Wind Chill: 38°   Ceiling: Unl
Heat Index: 42°   Visibility: 10mi
Dew Point: 35°   Wind: 6mph
Humidity: 78%   Direction: 130°SE
Pressure: 30.34"   Gusts: NA
Location:  31.935°N, 95.7672°W
Report Text: KPSN 281215Z AUTO 13005KT 10SM CLR 05/01 A3034 RMK AO2 T00530017
Loading
Personal Weather Stations






























Interactive Weather Map New forecast layout! Learn more

10-Day Weather Forecast

Advertisements
Track Severe Weather on mobile